createdAt,value
2023-03-03T00:02:24.138Z,100.00
2023-03-03T00:04:55.647Z,100.00
2023-03-03T00:07:27.203Z,100.00
2023-03-03T00:09:58.777Z,100.00
2023-03-03T00:12:30.366Z,100.00
2023-03-03T00:15:01.927Z,100.00
2023-03-03T00:17:33.989Z,100.00
2023-03-03T00:20:05.762Z,100.00
2023-03-03T00:22:37.714Z,100.00
2023-03-03T00:25:09.274Z,100.00
2023-03-03T00:27:40.884Z,100.00
2023-03-03T00:30:12.369Z,100.00
2023-03-03T00:32:44.027Z,100.00
2023-03-03T00:35:15.670Z,100.00
2023-03-03T00:37:47.174Z,100.00
2023-03-03T00:40:18.650Z,100.00
2023-03-03T00:42:51.267Z,100.00
2023-03-03T00:45:23.198Z,100.00
2023-03-03T00:47:55.047Z,100.00
2023-03-03T00:50:26.650Z,100.00
2023-03-03T00:52:58.429Z,100.00
2023-03-03T00:55:29.877Z,100.00
2023-03-03T00:58:04.308Z,100.00
2023-03-03T01:00:35.856Z,100.00
2023-03-03T01:03:07.733Z,100.00
2023-03-03T01:05:39.261Z,100.00
2023-03-03T01:08:11.003Z,100.00
2023-03-03T01:10:42.473Z,100.00
2023-03-03T01:13:14.406Z,100.00
2023-03-03T01:15:45.906Z,100.00
2023-03-03T01:18:17.796Z,100.00
2023-03-03T01:20:49.287Z,100.00
2023-03-03T01:23:20.965Z,100.00
2023-03-03T01:25:52.507Z,100.00
2023-03-03T01:28:24.356Z,100.00
2023-03-03T01:30:55.847Z,100.00
2023-03-03T01:33:27.365Z,100.00
2023-03-03T01:35:58.936Z,100.00
2023-03-03T01:38:30.496Z,100.00
2023-03-03T01:41:02.036Z,100.00
2023-03-03T01:43:33.531Z,100.00
2023-03-03T01:46:05.595Z,100.00
2023-03-03T01:48:37.528Z,100.00
2023-03-03T01:51:09.040Z,100.00
2023-03-03T01:53:40.797Z,100.00
2023-03-03T01:56:12.309Z,100.00
2023-03-03T01:58:44.003Z,100.00
2023-03-03T02:01:15.475Z,100.00
2023-03-03T02:03:47.480Z,100.00
2023-03-03T02:06:18.982Z,100.00
2023-03-03T02:08:50.937Z,100.00
2023-03-03T02:11:22.446Z,100.00
2023-03-03T02:13:54.258Z,100.00
2023-03-03T02:16:25.800Z,100.00
2023-03-03T02:18:57.710Z,100.00
2023-03-03T02:21:29.221Z,100.00
2023-03-03T02:24:01.016Z,100.00
2023-03-03T02:26:32.543Z,100.00
2023-03-03T02:29:04.408Z,100.00
2023-03-03T02:31:36.251Z,100.00
2023-03-03T02:34:08.190Z,100.00
2023-03-03T02:36:39.735Z,100.00
2023-03-03T02:39:11.806Z,100.00
2023-03-03T02:41:43.282Z,100.00
2023-03-03T02:44:16.602Z,100.00
2023-03-03T02:46:48.128Z,100.00
2023-03-03T02:49:19.702Z,100.00
2023-03-03T02:51:51.179Z,100.00
2023-03-03T02:54:22.889Z,100.00
2023-03-03T02:56:54.672Z,100.00
2023-03-03T02:59:26.150Z,100.00
2023-03-03T03:01:58.049Z,100.00
2023-03-03T03:04:29.631Z,100.00
2023-03-03T03:07:01.600Z,100.00
2023-03-03T03:09:33.100Z,100.00
2023-03-03T03:12:05.627Z,100.00
2023-03-03T03:14:37.168Z,100.00
2023-03-03T03:17:08.867Z,100.00
2023-03-03T03:19:40.377Z,100.00
2023-03-03T03:22:12.318Z,100.00
2023-03-03T03:24:43.862Z,100.00
2023-03-03T03:27:15.334Z,100.00
2023-03-03T03:29:46.818Z,100.00
2023-03-03T03:32:18.525Z,100.00
2023-03-03T03:34:50.104Z,100.00
2023-03-03T03:37:21.965Z,100.00
2023-03-03T03:39:53.938Z,100.00
2023-03-03T03:42:25.729Z,100.00
2023-03-03T03:44:57.304Z,100.00
2023-03-03T03:47:28.825Z,100.00
2023-03-03T03:50:00.318Z,100.00
2023-03-03T03:52:31.819Z,100.00
2023-03-03T03:55:03.308Z,100.00
2023-03-03T03:57:35.417Z,100.00
2023-03-03T04:00:06.939Z,100.00
2023-03-03T04:02:38.837Z,100.00
2023-03-03T04:05:10.405Z,100.00
2023-03-03T04:07:42.073Z,100.00
2023-03-03T04:10:13.755Z,100.00
2023-03-03T04:12:45.484Z,100.00
2023-03-03T04:15:16.970Z,100.00
2023-03-03T04:17:48.812Z,100.00
2023-03-03T04:20:20.345Z,100.00
2023-03-03T04:22:52.377Z,100.00
2023-03-03T04:25:23.883Z,100.00
2023-03-03T04:27:55.702Z,100.00
2023-03-03T04:30:27.160Z,100.00
2023-03-03T04:32:59.052Z,100.00
2023-03-03T04:35:30.615Z,100.00
2023-03-03T04:38:02.450Z,100.00
2023-03-03T04:40:33.996Z,100.00
2023-03-03T04:43:05.875Z,100.00
2023-03-03T04:45:37.402Z,100.00
2023-03-03T04:48:09.263Z,100.00
2023-03-03T04:50:40.888Z,100.00
2023-03-03T04:53:12.664Z,100.00
2023-03-03T04:55:44.213Z,100.00
2023-03-03T04:58:16.332Z,100.00
2023-03-03T05:00:47.837Z,100.00
2023-03-03T05:03:19.992Z,100.00
2023-03-03T05:05:51.480Z,100.00
2023-03-03T05:08:23.345Z,100.00
2023-03-03T05:10:54.867Z,100.00
2023-03-03T05:13:27.370Z,100.00
2023-03-03T05:15:59.142Z,100.00
2023-03-03T05:18:30.787Z,100.00
2023-03-03T05:21:02.450Z,100.00
2023-03-03T05:23:33.984Z,100.00
2023-03-03T05:26:05.505Z,100.00
2023-03-03T05:28:37.004Z,100.00
2023-03-03T05:31:08.484Z,100.00
2023-03-03T05:33:40.228Z,100.00
2023-03-03T05:36:13.560Z,100.00
2023-03-03T05:38:45.436Z,100.00
2023-03-03T05:41:16.911Z,100.00
2023-03-03T05:43:50.842Z,100.00
2023-03-03T05:46:24.468Z,100.00
2023-03-03T05:48:56.010Z,100.00
2023-03-03T05:51:27.571Z,100.00
2023-03-03T05:53:59.669Z,100.00
2023-03-03T05:56:31.193Z,100.00
2023-03-03T05:59:02.917Z,100.00
2023-03-03T06:01:34.511Z,100.00
2023-03-03T06:04:06.368Z,100.00
2023-03-03T06:06:37.864Z,100.00
2023-03-03T06:09:09.365Z,100.00
2023-03-03T06:11:40.901Z,100.00
2023-03-03T06:14:12.420Z,100.00
2023-03-03T06:16:43.919Z,100.00
2023-03-03T06:19:15.751Z,100.00
2023-03-03T06:21:47.256Z,100.00
2023-03-03T06:24:19.132Z,100.00
2023-03-03T06:26:50.669Z,100.00
2023-03-03T06:29:22.498Z,100.00
2023-03-03T06:31:54.199Z,100.00
2023-03-03T06:34:26.205Z,100.00
2023-03-03T06:36:57.774Z,100.00
2023-03-03T06:39:29.400Z,100.00
2023-03-03T06:42:00.930Z,100.00
2023-03-03T06:44:32.484Z,100.00
2023-03-03T06:47:04.089Z,100.00
2023-03-03T06:49:35.972Z,100.00
2023-03-03T06:52:07.470Z,100.00
2023-03-03T06:54:39.405Z,100.00
2023-03-03T06:57:10.934Z,100.00
2023-03-03T06:59:42.781Z,100.00
2023-03-03T07:02:14.322Z,100.00
2023-03-03T07:04:47.444Z,100.00
2023-03-03T07:07:19.033Z,100.00
2023-03-03T07:09:50.909Z,100.00
2023-03-03T07:12:22.565Z,100.00
2023-03-03T07:14:56.328Z,100.00
2023-03-03T07:17:27.852Z,100.00
2023-03-03T07:19:59.615Z,100.00
2023-03-03T07:22:31.153Z,100.00
2023-03-03T07:25:03.062Z,100.00
2023-03-03T07:27:34.601Z,100.00
2023-03-03T07:30:06.409Z,100.00
2023-03-03T07:32:37.892Z,100.00
2023-03-03T07:35:09.775Z,100.00
2023-03-03T07:37:41.304Z,100.00
2023-03-03T07:40:13.165Z,100.00
2023-03-03T07:42:44.788Z,100.00
2023-03-03T07:45:16.661Z,100.00
2023-03-03T07:47:48.168Z,100.00
2023-03-03T07:50:20.427Z,100.00
2023-03-03T07:52:53.362Z,100.00
2023-03-03T07:55:25.043Z,100.00
2023-03-03T07:57:59.183Z,100.00
2023-03-03T08:00:31.002Z,100.00
2023-03-03T08:03:02.562Z,100.00
2023-03-03T08:05:34.343Z,100.00
2023-03-03T08:08:05.902Z,100.00
2023-03-03T08:10:37.573Z,100.00
2023-03-03T08:13:09.122Z,100.00
2023-03-03T08:15:40.633Z,100.00
2023-03-03T08:18:12.157Z,100.00
2023-03-03T08:20:44.975Z,100.00
2023-03-03T08:23:16.558Z,100.00
2023-03-03T08:25:48.526Z,100.00
2023-03-03T08:28:20.108Z,100.00
2023-03-03T08:30:54.365Z,100.00
2023-03-03T08:33:31.628Z,100.00
2023-03-03T08:36:03.181Z,100.00
2023-03-03T08:38:34.686Z,100.00
2023-03-03T08:41:09.266Z,100.00
2023-03-03T08:43:41.061Z,100.00
2023-03-03T08:46:12.686Z,100.00
2023-03-03T08:48:45.216Z,100.00
2023-03-03T08:51:16.894Z,100.00
2023-03-03T08:53:48.749Z,100.00
2023-03-03T08:56:20.259Z,100.00
2023-03-03T08:59:02.207Z,100.00
2023-03-03T09:01:34.478Z,100.00
2023-03-03T09:04:06.489Z,100.00
2023-03-03T09:06:38.075Z,100.00
2023-03-03T09:09:09.956Z,100.00
2023-03-03T09:11:43.522Z,100.00
2023-03-03T09:14:15.103Z,100.00
2023-03-03T09:16:46.615Z,100.00
2023-03-03T09:19:18.156Z,100.00
2023-03-03T09:21:49.781Z,100.00
2023-03-03T09:24:21.707Z,100.00
2023-03-03T09:26:53.296Z,100.00
2023-03-03T09:29:25.748Z,100.00
2023-03-03T09:31:58.757Z,100.00
2023-03-03T09:34:30.640Z,100.00
2023-03-03T09:37:02.142Z,100.00
2023-03-03T09:39:33.675Z,100.00
2023-03-03T09:42:05.187Z,100.00
2023-03-03T09:44:36.722Z,100.00
2023-03-03T09:47:08.292Z,100.00
2023-03-03T09:49:40.409Z,100.00
2023-03-03T09:52:13.812Z,100.00
2023-03-03T09:54:45.678Z,100.00
2023-03-03T09:57:17.247Z,100.00
2023-03-03T09:59:48.931Z,100.00
2023-03-03T10:02:20.460Z,100.00
2023-03-03T10:04:52.325Z,100.00
2023-03-03T10:07:23.868Z,100.00
2023-03-03T10:09:55.872Z,100.00
2023-03-03T10:12:27.402Z,100.00
2023-03-03T10:14:59.420Z,100.00
2023-03-03T10:17:30.971Z,100.00
2023-03-03T10:20:03.657Z,100.00
2023-03-03T10:22:35.240Z,100.00
2023-03-03T10:25:07.142Z,100.00
2023-03-03T10:27:38.741Z,100.00
2023-03-03T10:30:10.625Z,98.75
2023-03-03T10:32:42.320Z,99.08
2023-03-03T10:35:14.218Z,100.00
2023-03-03T10:37:45.713Z,100.00
2023-03-03T10:40:17.529Z,100.00
2023-03-03T10:42:49.059Z,100.00
2023-03-03T10:45:20.861Z,100.00
2023-03-03T10:47:53.834Z,100.00
2023-03-03T10:50:25.725Z,100.00
2023-03-03T10:52:57.901Z,100.00
2023-03-03T10:55:29.592Z,100.00
2023-03-03T10:58:01.233Z,100.00
2023-03-03T11:00:32.761Z,100.00
2023-03-03T11:03:04.266Z,100.00
2023-03-03T11:05:36.112Z,100.00
2023-03-03T11:08:08.248Z,100.00
2023-03-03T11:10:39.763Z,100.00
2023-03-03T11:13:13.581Z,100.00
2023-03-03T11:15:45.471Z,100.00
2023-03-03T11:18:17.009Z,100.00
2023-03-03T11:20:48.725Z,98.44
2023-03-03T11:23:20.236Z,97.88
2023-03-03T11:25:53.465Z,95.08
2023-03-03T11:28:24.948Z,98.29
2023-03-03T11:30:56.975Z,98.96
2023-03-03T11:33:28.496Z,99.98
2023-03-03T11:36:00.451Z,100.00
2023-03-03T11:38:32.004Z,100.00
2023-03-03T11:41:05.101Z,100.00
2023-03-03T11:43:37.746Z,100.00
2023-03-03T11:46:09.805Z,100.00
2023-03-03T11:48:41.377Z,100.00
2023-03-03T11:51:13.239Z,98.75
2023-03-03T11:53:44.739Z,99.74
2023-03-03T11:56:16.458Z,100.00
2023-03-03T11:58:48.123Z,98.93
2023-03-03T12:01:19.998Z,100.00
2023-03-03T12:03:51.540Z,100.00
2023-03-03T12:06:23.236Z,100.00
2023-03-03T12:08:54.798Z,100.00
2023-03-03T12:11:26.522Z,100.00
2023-03-03T12:13:58.127Z,100.00
2023-03-03T12:16:29.681Z,100.00
2023-03-03T12:19:01.223Z,100.00
2023-03-03T12:21:32.775Z,100.00
2023-03-03T12:24:04.895Z,100.00
2023-03-03T12:26:36.840Z,100.00
2023-03-03T12:29:08.442Z,100.00
2023-03-03T12:31:40.423Z,100.00
2023-03-03T12:34:12.010Z,100.00
2023-03-03T12:36:45.560Z,99.97
2023-03-03T12:39:32.441Z,98.71
2023-03-03T12:42:06.360Z,100.00
2023-03-03T12:44:37.942Z,100.00
2023-03-03T12:47:09.941Z,100.00
2023-03-03T12:49:44.059Z,100.00
2023-03-03T12:52:17.026Z,100.00
2023-03-03T12:54:48.603Z,100.00
2023-03-03T12:57:20.560Z,100.00
2023-03-03T12:59:52.586Z,100.00
2023-03-03T13:02:24.206Z,100.00
2023-03-03T13:04:56.118Z,99.65
2023-03-03T13:07:27.877Z,99.47
2023-03-03T13:09:59.791Z,100.00
2023-03-03T13:12:31.449Z,100.00
2023-03-03T13:15:03.425Z,100.00
2023-03-03T13:17:34.993Z,100.00
2023-03-03T13:20:06.888Z,100.00
2023-03-03T13:22:38.537Z,100.00
2023-03-03T13:25:10.466Z,100.00
2023-03-03T13:27:42.052Z,98.30
2023-03-03T13:30:13.830Z,99.96
2023-03-03T13:32:45.464Z,100.00
2023-03-03T13:35:17.448Z,100.00
2023-03-03T13:37:49.039Z,100.00
2023-03-03T13:40:20.990Z,98.79
2023-03-03T13:42:52.584Z,99.75
2023-03-03T13:45:25.164Z,99.57
2023-03-03T13:47:56.727Z,100.00
2023-03-03T13:50:28.338Z,99.48
2023-03-03T13:52:59.913Z,98.94
2023-03-03T13:55:31.691Z,98.10
2023-03-03T13:58:03.876Z,99.08
2023-03-03T14:00:38.284Z,98.76
2023-03-03T14:03:10.234Z,98.30
2023-03-03T14:05:42.176Z,97.88
2023-03-03T14:08:13.878Z,94.55
2023-03-03T14:10:45.720Z,95.33
2023-03-03T14:13:17.300Z,95.13
2023-03-03T14:15:49.406Z,94.23
2023-03-03T14:18:20.984Z,94.21
2023-03-03T14:20:53.020Z,95.79
2023-03-03T14:23:24.627Z,95.85
2023-03-03T14:25:56.257Z,94.91
2023-03-03T14:28:27.823Z,94.92
2023-03-03T14:31:01.698Z,97.00
2023-03-03T14:33:34.749Z,96.59
2023-03-03T14:36:06.713Z,97.33
2023-03-03T14:38:38.287Z,98.12
2023-03-03T14:41:10.144Z,100.00
2023-03-03T14:43:41.879Z,100.00
2023-03-03T14:46:13.797Z,100.00
2023-03-03T14:48:45.725Z,99.47
2023-03-03T14:51:17.643Z,100.00
2023-03-03T14:53:50.077Z,100.00
2023-03-03T14:56:22.629Z,99.48
2023-03-03T14:58:57.239Z,99.45
2023-03-03T15:01:28.886Z,99.53
2023-03-03T15:04:00.594Z,100.00
2023-03-03T15:06:32.277Z,100.00
2023-03-03T15:09:03.825Z,100.00
2023-03-03T15:11:35.614Z,100.00
2023-03-03T15:14:07.229Z,100.00
2023-03-03T15:16:40.441Z,100.00
2023-03-03T15:19:13.729Z,100.00
2023-03-03T15:21:46.127Z,100.00
2023-03-03T15:24:17.746Z,100.00
2023-03-03T15:26:49.527Z,100.00
2023-03-03T15:29:21.071Z,100.00
2023-03-03T15:31:52.963Z,100.00
2023-03-03T15:34:25.008Z,99.74
2023-03-03T15:36:56.963Z,100.00
2023-03-03T15:39:28.533Z,100.00
2023-03-03T15:42:00.608Z,100.00
2023-03-03T15:44:32.266Z,99.99
2023-03-03T15:47:04.348Z,100.00
2023-03-03T15:49:38.320Z,99.57
2023-03-03T15:52:17.113Z,99.57
2023-03-03T15:54:48.759Z,100.00
2023-03-03T15:57:20.672Z,100.00
2023-03-03T15:59:52.921Z,100.00
2023-03-03T16:02:24.988Z,100.00
2023-03-03T16:04:57.387Z,100.00
2023-03-03T16:07:28.920Z,100.00
2023-03-03T16:10:00.417Z,100.00
2023-03-03T16:12:31.917Z,100.00
2023-03-03T16:15:03.413Z,100.00
2023-03-03T16:17:35.376Z,100.00
2023-03-03T16:20:07.183Z,100.00
2023-03-03T16:22:39.058Z,100.00
2023-03-03T16:25:10.820Z,100.00
2023-03-03T16:27:42.567Z,100.00
2023-03-03T16:30:14.058Z,100.00
2023-03-03T16:32:45.582Z,100.00
2023-03-03T16:35:17.752Z,100.00
2023-03-03T16:37:49.658Z,100.00
2023-03-03T16:40:21.289Z,100.00
2023-03-03T16:42:53.089Z,100.00
2023-03-03T16:45:24.713Z,100.00
2023-03-03T16:47:56.859Z,100.00
2023-03-03T16:50:28.382Z,100.00
2023-03-03T16:53:00.175Z,100.00
2023-03-03T16:55:31.719Z,100.00
2023-03-03T16:58:03.540Z,100.00
2023-03-03T17:00:35.048Z,100.00
2023-03-03T17:03:06.907Z,100.00
2023-03-03T17:05:38.508Z,100.00
2023-03-03T17:08:10.388Z,100.00
2023-03-03T17:10:41.870Z,100.00
2023-03-03T17:13:13.752Z,100.00
2023-03-03T17:15:45.704Z,100.00
2023-03-03T17:18:17.546Z,100.00
2023-03-03T17:20:49.213Z,100.00
2023-03-03T17:23:21.233Z,100.00
2023-03-03T17:25:52.732Z,100.00
2023-03-03T17:28:24.570Z,100.00
2023-03-03T17:30:56.066Z,100.00
2023-03-03T17:33:27.616Z,100.00
2023-03-03T17:35:59.215Z,100.00
2023-03-03T17:38:30.785Z,100.00
2023-03-03T17:41:02.317Z,100.00
2023-03-03T17:43:33.836Z,100.00
2023-03-03T17:46:05.379Z,100.00
2023-03-03T17:48:36.982Z,100.00
2023-03-03T17:51:08.589Z,100.00
2023-03-03T17:53:40.414Z,100.00
2023-03-03T17:56:12.154Z,100.00
2023-03-03T17:58:45.097Z,100.00
2023-03-03T18:01:16.977Z,100.00
2023-03-03T18:03:48.535Z,100.00
2023-03-03T18:06:20.145Z,100.00
2023-03-03T18:08:54.433Z,100.00
2023-03-03T18:11:31.094Z,100.00
2023-03-03T18:14:02.585Z,100.00
2023-03-03T18:16:34.170Z,100.00
2023-03-03T18:19:05.654Z,100.00
2023-03-03T18:21:37.522Z,100.00
2023-03-03T18:24:09.031Z,100.00
2023-03-03T18:26:40.864Z,100.00
2023-03-03T18:29:12.395Z,100.00
2023-03-03T18:31:44.112Z,100.00
2023-03-03T18:34:15.617Z,100.00
2023-03-03T18:36:47.445Z,100.00
2023-03-03T18:39:18.935Z,100.00
2023-03-03T18:41:50.748Z,100.00
2023-03-03T18:44:22.243Z,100.00
2023-03-03T18:46:54.153Z,100.00
2023-03-03T18:49:25.700Z,100.00
2023-03-03T18:51:57.522Z,100.00
2023-03-03T18:54:31.243Z,100.00
2023-03-03T18:57:05.008Z,100.00
2023-03-03T18:59:36.529Z,100.00
2023-03-03T19:02:08.613Z,100.00
2023-03-03T19:04:40.166Z,100.00
2023-03-03T19:07:11.909Z,100.00
2023-03-03T19:09:43.469Z,100.00
2023-03-03T19:12:15.555Z,100.00
2023-03-03T19:14:47.075Z,100.00
2023-03-03T19:17:18.906Z,100.00
2023-03-03T19:19:50.405Z,100.00
2023-03-03T19:22:22.461Z,100.00
2023-03-03T19:24:53.958Z,100.00
2023-03-03T19:27:25.789Z,100.00
2023-03-03T19:29:57.296Z,100.00
2023-03-03T19:32:28.853Z,100.00
2023-03-03T19:35:00.432Z,100.00
2023-03-03T19:37:32.230Z,100.00
2023-03-03T19:40:03.854Z,100.00
2023-03-03T19:42:35.989Z,100.00
2023-03-03T19:45:07.813Z,100.00
2023-03-03T19:47:40.386Z,100.00
2023-03-03T19:50:11.904Z,100.00
2023-03-03T19:52:43.649Z,100.00
2023-03-03T19:55:15.170Z,100.00
2023-03-03T19:57:47.548Z,100.00
2023-03-03T20:00:19.054Z,100.00
2023-03-03T20:02:50.900Z,100.00
2023-03-03T20:05:22.517Z,100.00
2023-03-03T20:07:54.565Z,100.00
2023-03-03T20:10:26.081Z,100.00
2023-03-03T20:13:00.728Z,100.00
2023-03-03T20:15:32.233Z,100.00
2023-03-03T20:18:04.322Z,100.00
2023-03-03T20:20:35.865Z,100.00
2023-03-03T20:23:07.529Z,100.00
2023-03-03T20:25:39.125Z,100.00
2023-03-03T20:28:11.039Z,100.00
2023-03-03T20:30:42.550Z,100.00
2023-03-03T20:33:17.352Z,100.00
2023-03-03T20:35:48.902Z,100.00
2023-03-03T20:38:20.566Z,100.00
2023-03-03T20:40:52.084Z,100.00
2023-03-03T20:43:24.000Z,100.00
2023-03-03T20:45:55.557Z,100.00
2023-03-03T20:48:27.138Z,100.00
2023-03-03T20:50:58.633Z,100.00
2023-03-03T20:53:30.134Z,100.00
2023-03-03T20:56:01.695Z,100.00
2023-03-03T20:58:33.191Z,100.00
2023-03-03T21:01:04.798Z,100.00
2023-03-03T21:03:37.689Z,100.00
2023-03-03T21:06:09.350Z,100.00
2023-03-03T21:08:41.216Z,100.00
2023-03-03T21:11:12.749Z,100.00
2023-03-03T21:13:44.632Z,100.00
2023-03-03T21:16:16.128Z,100.00
2023-03-03T21:18:50.787Z,100.00
2023-03-03T21:21:22.278Z,100.00
2023-03-03T21:23:54.353Z,100.00
2023-03-03T21:26:25.832Z,100.00
2023-03-03T21:28:57.734Z,100.00
2023-03-03T21:31:29.280Z,100.00
2023-03-03T21:34:00.948Z,100.00
2023-03-03T21:36:32.494Z,100.00
2023-03-03T21:39:04.329Z,100.00
2023-03-03T21:41:35.808Z,100.00
2023-03-03T21:44:07.308Z,100.00
2023-03-03T21:46:39.407Z,100.00
2023-03-03T21:49:11.313Z,100.00
2023-03-03T21:51:42.841Z,100.00
2023-03-03T21:54:14.677Z,100.00
2023-03-03T21:56:47.960Z,100.00
2023-03-03T21:59:19.853Z,100.00
2023-03-03T22:01:51.379Z,100.00
2023-03-03T22:04:23.198Z,100.00
2023-03-03T22:06:54.725Z,100.00
2023-03-03T22:09:26.451Z,100.00
2023-03-03T22:11:57.913Z,100.00
2023-03-03T22:14:29.438Z,100.00
2023-03-03T22:17:00.970Z,100.00
2023-03-03T22:19:34.195Z,100.00
2023-03-03T22:22:05.759Z,100.00
2023-03-03T22:24:37.589Z,100.00
2023-03-03T22:27:09.230Z,100.00
2023-03-03T22:29:41.077Z,100.00
2023-03-03T22:32:12.664Z,100.00
2023-03-03T22:34:44.618Z,100.00
2023-03-03T22:37:16.515Z,100.00
2023-03-03T22:39:48.026Z,100.00
2023-03-03T22:42:19.899Z,100.00
2023-03-03T22:44:51.414Z,100.00
2023-03-03T22:47:22.915Z,100.00
2023-03-03T22:49:54.495Z,100.00
2023-03-03T22:52:25.981Z,100.00
2023-03-03T22:54:58.898Z,100.00
2023-03-03T22:57:30.863Z,100.00
2023-03-03T23:00:02.518Z,100.00
2023-03-03T23:02:34.032Z,100.00
2023-03-03T23:05:08.453Z,100.00
2023-03-03T23:07:41.175Z,100.00
2023-03-03T23:10:12.640Z,100.00
2023-03-03T23:12:44.479Z,100.00
2023-03-03T23:15:16.036Z,100.00
2023-03-03T23:17:47.552Z,100.00
2023-03-03T23:20:19.066Z,100.00
2023-03-03T23:22:50.974Z,100.00
2023-03-03T23:25:25.519Z,100.00
2023-03-03T23:27:57.449Z,100.00
2023-03-03T23:30:28.960Z,100.00
2023-03-03T23:33:00.956Z,100.00
2023-03-03T23:35:32.550Z,100.00
2023-03-03T23:38:04.437Z,100.00
2023-03-03T23:40:36.200Z,100.00
2023-03-03T23:43:07.956Z,100.00
2023-03-03T23:45:39.482Z,100.00
2023-03-03T23:48:10.981Z,100.00
2023-03-03T23:50:42.604Z,100.00
2023-03-03T23:53:15.499Z,100.00
2023-03-03T23:55:47.109Z,100.00
2023-03-03T23:58:18.987Z,100.00
